Time;durP1;ratioP1;P1;durP2;ratioP2;P2;SDS_P1;SDS_P2;PMS_P1;PMS_P2;Temp;Humidity;BMP_temperature;BMP_pressure;BME280_temperature;BME280_humidity;BME280_pressure;Samples;Min_cycle;Max_cycle;Signal;HPM_P1;HPM_P2
2021/10/09 00:02:09;;;;;;;;;;;10.30;99.90;;;;;;5037032;28;19910;-80
2021/10/09 00:04:35;;;;;;;;;;;10.30;99.90;;;;;;5035941;28;19909;-80
2021/10/09 00:07:00;;;;;;;;;;;10.30;99.90;;;;;;5041772;28;19920;-80
2021/10/09 00:09:27;;;;;;;;;;;10.30;99.90;;;;;;5032395;28;19913;-79
2021/10/09 00:11:53;;;;;;;;;;;10.30;99.90;;;;;;5042846;28;20354;-79
2021/10/09 00:14:19;;;;;;;;;;;10.30;99.90;;;;;;5034567;28;19913;-79
2021/10/09 00:16:45;;;;;;;;;;;10.20;99.90;;;;;;5036698;28;19917;-79
2021/10/09 00:19:11;;;;;;;;;;;10.20;99.90;;;;;;5021130;28;20221;-79
2021/10/09 00:21:43;;;;;;;;;;;10.30;99.90;;;;;;5028188;28;19913;-79
2021/10/09 00:24:09;;;;;;;;;;;10.20;99.90;;;;;;5023279;28;19909;-79
2021/10/09 00:26:35;;;;;;;;;;;10.20;99.90;;;;;;5031799;28;20221;-80
2021/10/09 00:29:00;;;;;;;;;;;10.20;99.90;;;;;;5023756;28;19917;-80
2021/10/09 00:31:26;;;;;;;;;;;10.20;99.90;;;;;;5035465;28;20709;-81
2021/10/09 00:33:51;;;;;;;;;;;10.10;99.90;;;;;;5037215;28;19919;-80
2021/10/09 00:36:17;;;;;;;;;;;10.20;99.90;;;;;;5022173;28;19913;-78
2021/10/09 00:38:43;;;;;;;;;;;10.10;99.90;;;;;;5035147;28;20087;-80
2021/10/09 00:41:08;;;;;;;;;;;10.10;99.90;;;;;;5021954;28;19932;-79
2021/10/09 00:43:34;;;;;;;;;;;10.20;99.90;;;;;;5033923;28;19920;-78
2021/10/09 00:45:59;;;;;;;;;;;10.20;99.90;;;;;;5018587;28;19913;-79
2021/10/09 00:48:25;;;;;;;;;;;10.20;99.90;;;;;;5017217;28;19913;-79
2021/10/09 00:50:51;;;;;;;;;;;10.20;99.90;;;;;;5002033;28;20241;-80
2021/10/09 00:53:18;;;;;;;;;;;10.20;99.90;;;;;;5027069;28;19917;-79
2021/10/09 00:55:45;;;;;;;;;;;10.20;99.90;;;;;;5025957;28;19913;-80
2021/10/09 00:58:11;;;;;;;;;;;10.20;99.90;;;;;;5030090;28;19913;-80
2021/10/09 01:00:39;;;;;;;;;;;10.20;99.90;;;;;;5018467;28;20357;-79
2021/10/09 01:03:05;;;;;;;;;;;10.20;99.90;;;;;;5017273;28;19909;-79
2021/10/09 01:05:34;;;;;;;;;;;10.20;99.90;;;;;;5033121;28;19913;-79
2021/10/09 01:07:59;;;;;;;;;;;10.10;99.90;;;;;;5035678;28;19916;-78
2021/10/09 01:10:26;;;;;;;;;;;10.10;99.90;;;;;;5031295;28;19913;-78
2021/10/09 01:12:52;;;;;;;;;;;10.10;99.90;;;;;;5026311;28;19910;-80
2021/10/09 01:15:22;;;;;;;;;;;10.00;99.90;;;;;;5020720;28;19913;-79
2021/10/09 01:17:47;;;;;;;;;;;10.00;99.90;;;;;;5027416;28;19917;-80
2021/10/09 01:20:14;;;;;;;;;;;10.00;99.90;;;;;;5030112;28;19921;-80
2021/10/09 01:22:39;;;;;;;;;;;10.10;99.90;;;;;;5016686;28;20019;-80
2021/10/09 01:25:06;;;;;;;;;;;10.10;99.90;;;;;;5018521;28;19999;-80
2021/10/09 01:27:32;;;;;;;;;;;10.10;99.90;;;;;;5049072;28;20007;-80
2021/10/09 01:29:58;;;;;;;;;;;10.10;99.90;;;;;;5017568;28;19936;-80
2021/10/09 01:32:24;;;;;;;;;;;10.10;99.90;;;;;;5034947;28;19940;-78
2021/10/09 01:34:49;;;;;;;;;;;10.10;99.90;;;;;;5034880;28;19915;-80
2021/10/09 01:37:15;;;;;;;;;;;10.10;99.90;;;;;;5013909;28;20036;-80
2021/10/09 01:39:44;;;;;;;;;;;10.10;99.90;;;;;;5016017;28;20330;-80
2021/10/09 01:42:10;;;;;;;;;;;10.10;99.90;;;;;;5026564;28;19913;-81
2021/10/09 01:44:36;;;;;;;;;;;10.10;99.90;;;;;;5031537;28;19967;-79
2021/10/09 01:47:01;;;;;;;;;;;10.10;99.90;;;;;;5021286;28;19988;-79
2021/10/09 01:49:27;;;;;;;;;;;10.20;99.90;;;;;;5007796;28;19916;-80
2021/10/09 01:51:52;;;;;;;;;;;10.10;99.90;;;;;;5010137;28;20457;-80
2021/10/09 01:54:18;;;;;;;;;;;10.10;99.90;;;;;;5031139;28;19973;-80
2021/10/09 01:56:43;;;;;;;;;;;10.20;99.90;;;;;;5011106;28;20348;-80
2021/10/09 01:59:09;;;;;;;;;;;10.20;99.90;;;;;;4997778;28;19914;-79
2021/10/09 02:01:35;;;;;;;;;;;10.20;99.90;;;;;;5033821;28;20212;-80
2021/10/09 02:04:01;;;;;;;;;;;10.20;99.90;;;;;;5034557;28;19967;-80
2021/10/09 02:06:27;;;;;;;;;;;10.20;99.90;;;;;;5016304;28;20175;-80
2021/10/09 02:08:52;;;;;;;;;;;10.20;99.90;;;;;;5009439;28;19910;-80
2021/10/09 02:11:21;;;;;;;;;;;10.20;99.90;;;;;;5028245;28;19921;-80
2021/10/09 02:27:05;;;;;;;;;;;10.10;99.90;;;;;;5003343;28;20032;-79
2021/10/09 02:29:31;;;;;;;;;;;10.10;99.90;;;;;;5014467;28;20344;-80
2021/10/09 02:31:57;;;;;;;;;;;10.10;99.90;;;;;;5019020;28;19909;-79
2021/10/09 02:34:23;;;;;;;;;;;10.10;99.90;;;;;;5032498;28;19916;-79
2021/10/09 02:36:48;;;;;;;;;;;10.10;99.90;;;;;;5020851;28;19913;-79
2021/10/09 02:39:14;;;;;;;;;;;10.00;99.90;;;;;;5034430;28;19920;-79
2021/10/09 02:41:40;;;;;;;;;;;10.00;99.90;;;;;;5034181;28;19958;-79
2021/10/09 02:44:05;;;;;;;;;;;10.00;99.90;;;;;;5030140;28;19916;-80
2021/10/09 02:46:31;;;;;;;;;;;10.10;99.90;;;;;;5023877;28;19913;-80
2021/10/09 02:48:56;;;;;;;;;;;10.10;99.90;;;;;;5014399;28;20316;-79
2021/10/09 02:51:22;;;;;;;;;;;10.10;99.90;;;;;;5022839;28;20304;-80
2021/10/09 02:53:47;;;;;;;;;;;10.00;99.90;;;;;;5031859;28;19924;-79
2021/10/09 02:56:13;;;;;;;;;;;10.00;99.90;;;;;;5015979;28;19917;-81
2021/10/09 02:58:39;;;;;;;;;;;10.00;99.90;;;;;;5016908;28;19917;-79
2021/10/09 03:01:04;;;;;;;;;;;10.00;99.90;;;;;;5029488;28;19910;-80
2021/10/09 03:03:30;;;;;;;;;;;10.00;99.90;;;;;;5015926;28;19928;-80
2021/10/09 03:05:55;;;;;;;;;;;9.90;99.90;;;;;;5032662;28;20219;-79
2021/10/09 03:08:21;;;;;;;;;;;9.80;99.90;;;;;;5001351;28;19921;-80
2021/10/09 03:10:46;;;;;;;;;;;9.80;99.90;;;;;;5026377;28;20285;-79
2021/10/09 03:13:12;;;;;;;;;;;9.80;99.90;;;;;;5033515;28;19963;-80
2021/10/09 03:15:37;;;;;;;;;;;9.80;99.90;;;;;;5034476;28;20015;-80
2021/10/09 03:18:03;;;;;;;;;;;9.80;99.90;;;;;;5032162;28;20308;-79
2021/10/09 03:20:29;;;;;;;;;;;9.90;99.90;;;;;;5034530;28;19909;-80
2021/10/09 03:22:54;;;;;;;;;;;10.00;99.90;;;;;;5033101;28;19913;-80
2021/10/09 03:25:20;;;;;;;;;;;10.00;99.90;;;;;;5034663;28;19910;-80
2021/10/09 03:27:46;;;;;;;;;;;10.00;99.90;;;;;;5037458;28;19967;-79
2021/10/09 03:30:12;;;;;;;;;;;10.00;99.90;;;;;;5019139;28;19917;-80
2021/10/09 03:32:38;;;;;;;;;;;10.00;99.90;;;;;;5032189;28;19924;-79
2021/10/09 03:35:04;;;;;;;;;;;10.00;99.90;;;;;;5033950;28;20311;-81
2021/10/09 03:37:29;;;;;;;;;;;10.00;99.90;;;;;;5018103;28;19923;-79
2021/10/09 03:39:59;;;;;;;;;;;9.90;99.90;;;;;;5031304;28;20224;-78
2021/10/09 03:42:32;;;;;;;;;;;9.90;99.90;;;;;;5037757;28;19917;-79
2021/10/09 03:45:04;;;;;;;;;;;10.00;99.90;;;;;;5036515;28;19917;-80
2021/10/09 03:50:17;;;;;;;;;;;9.90;99.90;;;;;;5023462;28;19921;-79
2021/10/09 03:52:43;;;;;;;;;;;9.90;99.90;;;;;;5037077;28;19913;-80
2021/10/09 03:55:10;;;;;;;;;;;9.90;99.90;;;;;;5036920;28;19962;-79
2021/10/09 03:57:36;;;;;;;;;;;9.90;99.90;;;;;;5019527;28;19916;-79
2021/10/09 04:00:05;;;;;;;;;;;9.90;99.90;;;;;;5036687;28;19918;-80
2021/10/09 04:02:31;;;;;;;;;;;9.90;99.90;;;;;;5022402;28;19910;-79
2021/10/09 04:04:56;;;;;;;;;;;9.90;99.90;;;;;;5023369;28;19995;-79
2021/10/09 04:07:22;;;;;;;;;;;9.90;99.90;;;;;;5036055;28;19913;-79
2021/10/09 04:09:48;;;;;;;;;;;9.90;99.90;;;;;;5014140;28;19984;-80
2021/10/09 04:12:13;;;;;;;;;;;9.90;99.90;;;;;;5010346;28;19917;-80
2021/10/09 04:14:40;;;;;;;;;;;9.90;99.90;;;;;;5036578;28;19992;-79
2021/10/09 04:17:05;;;;;;;;;;;9.80;99.90;;;;;;5018323;28;19932;-80
2021/10/09 04:19:32;;;;;;;;;;;9.80;99.90;;;;;;5035092;28;20308;-79
2021/10/09 04:21:58;;;;;;;;;;;9.80;99.90;;;;;;5023979;28;20310;-79
2021/10/09 04:24:23;;;;;;;;;;;9.80;99.90;;;;;;5036486;28;19913;-79
2021/10/09 04:26:49;;;;;;;;;;;9.80;99.90;;;;;;5036211;28;19963;-80
2021/10/09 04:29:14;;;;;;;;;;;9.80;99.90;;;;;;5018946;28;20274;-79
2021/10/09 04:31:40;;;;;;;;;;;9.80;99.90;;;;;;5015993;28;19936;-80
2021/10/09 04:34:05;;;;;;;;;;;9.80;99.90;;;;;;5004331;28;19913;-80
2021/10/09 04:36:31;;;;;;;;;;;9.70;99.90;;;;;;5021086;28;19985;-80
2021/10/09 04:38:56;;;;;;;;;;;9.70;99.90;;;;;;5025357;28;19917;-80
2021/10/09 04:41:22;;;;;;;;;;;9.70;99.90;;;;;;5029064;28;20084;-81
2021/10/09 04:43:48;;;;;;;;;;;9.70;99.90;;;;;;5007081;28;19921;-80
2021/10/09 04:46:13;;;;;;;;;;;9.70;99.90;;;;;;5016980;28;19921;-81
2021/10/09 04:48:39;;;;;;;;;;;9.70;99.90;;;;;;5021585;28;20354;-81
2021/10/09 04:51:04;;;;;;;;;;;9.60;99.90;;;;;;5022899;28;19922;-80
2021/10/09 04:53:30;;;;;;;;;;;9.60;99.90;;;;;;5021944;28;19949;-80
2021/10/09 04:55:55;;;;;;;;;;;9.60;99.90;;;;;;5021966;28;20316;-79
2021/10/09 04:58:21;;;;;;;;;;;9.60;99.90;;;;;;5002162;28;19910;-80
2021/10/09 05:00:48;;;;;;;;;;;9.60;99.90;;;;;;5005283;28;19909;-80
2021/10/09 05:03:14;;;;;;;;;;;9.60;99.90;;;;;;5018434;28;20309;-78
2021/10/09 05:05:42;;;;;;;;;;;9.60;99.90;;;;;;5028687;28;19917;-80
2021/10/09 05:08:08;;;;;;;;;;;9.60;99.90;;;;;;4998534;28;19914;-80
2021/10/09 05:10:34;;;;;;;;;;;9.60;99.90;;;;;;5020191;28;19925;-80
2021/10/09 05:12:59;;;;;;;;;;;9.60;99.90;;;;;;5012200;28;19914;-80
2021/10/09 05:15:25;;;;;;;;;;;9.60;99.90;;;;;;5027109;28;20335;-80
2021/10/09 05:17:51;;;;;;;;;;;9.60;99.90;;;;;;5041697;28;19971;-80
2021/10/09 05:20:18;;;;;;;;;;;9.60;99.90;;;;;;5034424;28;19909;-80
2021/10/09 05:22:43;;;;;;;;;;;9.50;99.90;;;;;;5035220;28;19913;-80
2021/10/09 05:25:09;;;;;;;;;;;9.60;99.90;;;;;;5034265;28;19937;-80
2021/10/09 05:27:35;;;;;;;;;;;9.50;99.90;;;;;;5034843;28;20204;-80
2021/10/09 05:30:10;;;;;;;;;;;9.50;99.90;;;;;;5017364;28;20576;-80
2021/10/09 05:32:45;;;;;;;;;;;9.50;99.90;;;;;;5033279;28;19913;-80
2021/10/09 05:35:11;;;;;;;;;;;9.50;99.90;;;;;;5031929;28;19956;-80
2021/10/09 05:37:37;;;;;;;;;;;9.40;99.90;;;;;;5023280;28;19921;-80
2021/10/09 05:40:02;;;;;;;;;;;9.40;99.90;;;;;;5004169;28;19913;-80
2021/10/09 05:42:28;;;;;;;;;;;9.40;99.90;;;;;;5035195;28;19913;-80
2021/10/09 05:44:54;;;;;;;;;;;9.40;99.90;;;;;;5016289;28;19917;-80
2021/10/09 05:47:19;;;;;;;;;;;9.30;99.90;;;;;;5033658;28;19921;-80
2021/10/09 05:49:49;;;;;;;;;;;9.30;99.90;;;;;;5014366;28;19967;-80
2021/10/09 05:52:21;;;;;;;;;;;9.30;99.90;;;;;;5030800;28;19913;-79
2021/10/09 05:54:54;;;;;;;;;;;9.30;99.90;;;;;;5017448;28;19913;-80
2021/10/09 05:57:33;;;;;;;;;;;9.30;99.90;;;;;;5034860;28;20002;-80
2021/10/09 06:46:08;;;;;;;;;;;9.40;99.90;;;;;;4971402;28;20316;-80
2021/10/09 06:59:37;;;;;;;;;;;9.80;99.90;;;;;;5026426;28;19924;-81
2021/10/09 07:02:02;;;;;;;;;;;10.10;99.90;;;;;;5010011;28;20313;-82
2021/10/09 07:04:28;;;;;;;;;;;10.60;99.90;;;;;;5010282;28;19923;-82
2021/10/09 07:06:55;;;;;;;;;;;11.10;99.90;;;;;;5026909;28;19964;-82
2021/10/09 07:09:21;;;;;;;;;;;11.70;99.90;;;;;;5029212;28;19917;-82
2021/10/09 07:11:46;;;;;;;;;;;12.10;99.90;;;;;;5041150;28;19928;-80
2021/10/09 07:14:12;;;;;;;;;;;12.40;99.90;;;;;;5015586;28;19970;-81
2021/10/09 07:16:37;;;;;;;;;;;12.30;99.90;;;;;;5039484;28;19970;-81
2021/10/09 07:19:03;;;;;;;;;;;12.10;99.90;;;;;;5023604;28;19952;-82
2021/10/09 07:21:29;;;;;;;;;;;11.90;99.90;;;;;;5040597;28;20308;-82
2021/10/09 07:23:54;;;;;;;;;;;11.80;99.90;;;;;;5023817;28;19972;-79
2021/10/09 07:26:20;;;;;;;;;;;11.60;99.90;;;;;;5037064;28;19928;-82
2021/10/09 07:28:46;;;;;;;;;;;11.50;99.90;;;;;;5019806;28;20256;-80
2021/10/09 07:31:11;;;;;;;;;;;11.30;99.90;;;;;;5031897;28;19927;-80
2021/10/09 07:33:37;;;;;;;;;;;11.30;99.90;;;;;;5016357;28;20344;-82
2021/10/09 07:36:03;;;;;;;;;;;11.20;99.90;;;;;;5023480;28;19917;-80
2021/10/09 07:38:28;;;;;;;;;;;11.00;99.90;;;;;;5031612;28;19921;-83
2021/10/09 07:40:54;;;;;;;;;;;10.80;99.90;;;;;;5027463;28;19998;-79
2021/10/09 07:43:20;;;;;;;;;;;10.80;99.90;;;;;;5034540;28;19917;-80
2021/10/09 07:45:46;;;;;;;;;;;10.80;99.90;;;;;;5034685;28;19916;-82
2021/10/09 07:48:11;;;;;;;;;;;10.80;99.90;;;;;;5036990;28;19909;-83
2021/10/09 07:50:37;;;;;;;;;;;11.00;99.90;;;;;;5036410;28;19960;-81
2021/10/09 07:53:03;;;;;;;;;;;11.20;99.90;;;;;;5033255;28;19924;-82
2021/10/09 07:55:28;;;;;;;;;;;11.60;99.90;;;;;;5037042;28;19913;-81
2021/10/09 07:57:54;;;;;;;;;;;12.40;99.90;;;;;;5016123;28;19964;-77
2021/10/09 08:00:20;;;;;;;;;;;12.90;99.90;;;;;;5025642;28;19960;-83
2021/10/09 08:02:46;;;;;;;;;;;13.60;99.90;;;;;;5031198;28;19917;-82
2021/10/09 08:05:12;;;;;;;;;;;13.90;99.90;;;;;;5032308;28;19913;-83
2021/10/09 08:07:37;;;;;;;;;;;13.80;99.90;;;;;;5027249;28;19913;-83
2021/10/09 08:10:03;;;;;;;;;;;13.80;99.90;;;;;;5023860;28;19921;-83
2021/10/09 08:12:29;;;;;;;;;;;13.40;99.90;;;;;;5033786;28;19920;-82
2021/10/09 08:14:54;;;;;;;;;;;12.80;99.90;;;;;;5033255;28;19913;-82
2021/10/09 08:17:20;;;;;;;;;;;12.30;99.90;;;;;;5032731;28;19917;-83
2021/10/09 08:19:45;;;;;;;;;;;11.90;99.90;;;;;;5039295;28;19913;-82
2021/10/09 08:22:11;;;;;;;;;;;11.60;99.90;;;;;;5045697;28;19909;-83
2021/10/09 08:40:30;;;;;;;;;;;10.80;99.90;;;;;;5031966;28;19917;-84
2021/10/09 08:42:57;;;;;;;;;;;10.80;99.90;;;;;;5029789;28;19909;-82
2021/10/09 08:45:22;;;;;;;;;;;10.70;99.90;;;;;;5035661;28;19914;-83
2021/10/09 08:47:49;;;;;;;;;;;10.70;99.90;;;;;;5010748;28;19959;-82
2021/10/09 08:50:15;;;;;;;;;;;10.70;99.90;;;;;;5031075;28;20029;-80
2021/10/09 08:52:56;;;;;;;;;;;10.70;99.90;;;;;;5032102;28;20008;-81
2021/10/09 08:55:22;;;;;;;;;;;10.80;99.90;;;;;;5025727;28;20317;-81
2021/10/09 08:57:49;;;;;;;;;;;10.90;99.90;;;;;;5022003;28;19913;-81
2021/10/09 09:00:17;;;;;;;;;;;11.00;99.90;;;;;;5015977;28;19914;-77
2021/10/09 09:03:01;;;;;;;;;;;11.10;99.90;;;;;;5032592;28;19971;-81
2021/10/09 09:05:45;;;;;;;;;;;11.50;99.90;;;;;;5018018;28;19916;-82
2021/10/09 09:41:18;;;;;;;;;;;13.30;99.90;;;;;;5023536;28;19920;-79
2021/10/09 09:43:44;;;;;;;;;;;13.40;99.90;;;;;;5005990;28;20040;-82
2021/10/09 09:46:10;;;;;;;;;;;13.30;99.90;;;;;;5025143;28;19964;-81
2021/10/09 09:48:36;;;;;;;;;;;13.10;99.90;;;;;;5025397;28;19924;-81
2021/10/09 09:51:02;;;;;;;;;;;13.20;99.90;;;;;;5038350;28;19921;-81
2021/10/09 09:53:28;;;;;;;;;;;13.00;99.90;;;;;;5024667;28;19952;-81
2021/10/09 09:55:54;;;;;;;;;;;13.00;99.90;;;;;;5026343;28;19913;-81
2021/10/09 09:58:22;;;;;;;;;;;13.10;99.90;;;;;;5024675;28;20652;-82
2021/10/09 10:00:48;;;;;;;;;;;13.10;99.90;;;;;;5005199;28;19922;-81
2021/10/09 10:03:13;;;;;;;;;;;13.00;99.90;;;;;;5008386;28;19975;-80
2021/10/09 10:05:40;;;;;;;;;;;12.90;99.90;;;;;;5026486;28;19921;-79
2021/10/09 10:08:05;;;;;;;;;;;12.80;99.90;;;;;;5026384;28;19913;-80
2021/10/09 10:10:31;;;;;;;;;;;12.70;99.90;;;;;;5021719;28;19921;-81
2021/10/09 10:12:59;;;;;;;;;;;12.80;99.90;;;;;;5025053;28;19928;-81
2021/10/09 10:15:25;;;;;;;;;;;12.80;99.90;;;;;;5035757;28;19978;-80
2021/10/09 10:17:51;;;;;;;;;;;12.80;99.90;;;;;;5000459;28;19971;-80
2021/10/09 10:20:18;;;;;;;;;;;12.70;99.90;;;;;;5003993;28;20313;-81
2021/10/09 10:22:43;;;;;;;;;;;12.70;99.90;;;;;;5018305;28;19913;-80
2021/10/09 10:25:29;;;;;;;;;;;12.80;99.90;;;;;;5032341;28;19916;-81
2021/10/09 10:28:09;;;;;;;;;;;12.80;99.90;;;;;;5026410;28;20319;-80
2021/10/09 10:30:35;;;;;;;;;;;12.90;99.90;;;;;;5016692;28;20373;-77
2021/10/09 10:33:02;;;;;;;;;;;12.90;99.90;;;;;;5023942;28;19912;-82
2021/10/09 10:35:31;;;;;;;;;;;13.00;99.90;;;;;;5022967;28;19921;-84
2021/10/09 10:38:01;;;;;;;;;;;13.10;99.90;;;;;;5034425;28;20031;-80
2021/10/09 10:40:46;;;;;;;;;;;13.10;99.90;;;;;;5025784;28;19920;-81
2021/10/09 10:45:56;;;;;;;;;;;13.20;99.90;;;;;;5035078;28;19956;-81
2021/10/09 10:48:40;;;;;;;;;;;13.30;99.90;;;;;;5020639;28;19952;-82
2021/10/09 10:51:15;;;;;;;;;;;13.40;99.90;;;;;;5029088;28;19983;-82
2021/10/09 10:56:36;;;;;;;;;;;13.50;99.90;;;;;;5031062;28;19970;-79
2021/10/09 10:59:22;;;;;;;;;;;13.60;99.90;;;;;;5025199;28;20193;-80
2021/10/09 11:02:06;;;;;;;;;;;13.60;99.90;;;;;;5017920;28;19913;-80
2021/10/09 11:04:35;;;;;;;;;;;13.70;99.90;;;;;;5009515;28;20281;-81
2021/10/09 11:07:02;;;;;;;;;;;13.80;99.90;;;;;;5027499;28;19971;-83
2021/10/09 11:09:27;;;;;;;;;;;13.80;99.90;;;;;;5031437;28;19914;-81
2021/10/09 11:11:53;;;;;;;;;;;13.80;99.90;;;;;;5010343;28;19928;-82
2021/10/09 11:14:22;;;;;;;;;;;13.70;99.90;;;;;;5029492;28;20008;-81
2021/10/09 11:16:48;;;;;;;;;;;13.70;99.90;;;;;;5028493;28;19917;-81
2021/10/09 11:19:14;;;;;;;;;;;13.70;99.90;;;;;;5030097;28;19917;-79
2021/10/09 11:21:52;;;;;;;;;;;13.80;99.90;;;;;;5027478;28;19971;-80
2021/10/09 11:24:18;;;;;;;;;;;13.80;99.90;;;;;;5016438;28;19916;-81
2021/10/09 11:26:52;;;;;;;;;;;13.90;99.90;;;;;;5044029;28;19917;-81
2021/10/09 11:29:18;;;;;;;;;;;13.80;99.90;;;;;;5015326;28;19919;-80
2021/10/09 11:31:44;;;;;;;;;;;13.90;99.90;;;;;;5021283;28;19917;-81
2021/10/09 11:34:09;;;;;;;;;;;13.80;99.90;;;;;;5036993;28;19916;-80
2021/10/09 11:36:38;;;;;;;;;;;13.80;99.90;;;;;;5028273;28;19972;-81
2021/10/09 11:39:12;;;;;;;;;;;13.70;99.90;;;;;;5037982;28;20568;-80
2021/10/09 11:41:38;;;;;;;;;;;13.80;99.90;;;;;;5037248;28;19909;-81
2021/10/09 11:44:18;;;;;;;;;;;13.80;99.90;;;;;;5006921;28;20008;-82
2021/10/09 11:57:13;;;;;;;;;;;13.90;99.90;;;;;;5037322;28;20006;-81
2021/10/09 11:59:40;;;;;;;;;;;13.90;99.90;;;;;;5028021;28;20357;-81
2021/10/09 12:02:06;;;;;;;;;;;14.00;99.90;;;;;;5010627;28;20007;-77
2021/10/09 12:04:32;;;;;;;;;;;14.10;99.90;;;;;;5027668;28;19959;-81
2021/10/09 12:07:08;;;;;;;;;;;14.10;99.90;;;;;;5023999;28;20000;-80
2021/10/09 12:09:57;;;;;;;;;;;14.00;99.90;;;;;;5019545;28;19936;-81
2021/10/09 12:12:23;;;;;;;;;;;14.10;99.90;;;;;;5035949;28;19960;-81
2021/10/09 12:14:50;;;;;;;;;;;14.10;99.90;;;;;;5037512;28;19909;-82
2021/10/09 12:17:17;;;;;;;;;;;14.00;99.90;;;;;;5034640;28;20216;-81
2021/10/09 12:19:42;;;;;;;;;;;14.10;99.90;;;;;;5035036;28;20056;-82
2021/10/09 12:22:10;;;;;;;;;;;14.10;99.90;;;;;;5043022;28;20384;-82
2021/10/09 12:24:49;;;;;;;;;;;14.10;99.90;;;;;;5012933;28;19913;-81
2021/10/09 12:27:19;;;;;;;;;;;14.20;99.90;;;;;;5023684;28;19916;-80
2021/10/09 12:29:55;;;;;;;;;;;14.10;99.90;;;;;;5013197;28;19917;-81
2021/10/09 12:32:21;;;;;;;;;;;14.20;99.90;;;;;;5034067;28;20208;-76
2021/10/09 12:34:47;;;;;;;;;;;14.20;99.90;;;;;;5034665;28;19909;-81
2021/10/09 12:37:27;;;;;;;;;;;14.30;99.90;;;;;;5017572;28;19936;-81
2021/10/09 12:40:13;;;;;;;;;;;14.30;99.90;;;;;;5036266;28;19996;-82
2021/10/09 12:42:52;;;;;;;;;;;14.40;99.90;;;;;;5006970;28;19963;-81
2021/10/09 12:45:19;;;;;;;;;;;14.40;99.90;;;;;;5027707;28;19925;-81
2021/10/09 12:47:45;;;;;;;;;;;14.50;99.90;;;;;;5010297;28;19924;-78
2021/10/09 12:50:10;;;;;;;;;;;14.50;99.90;;;;;;5023737;28;19913;-82
2021/10/09 12:52:36;;;;;;;;;;;14.50;99.90;;;;;;5018856;28;19917;-82
2021/10/09 12:55:03;;;;;;;;;;;14.60;99.90;;;;;;5027670;28;19952;-81
2021/10/09 12:57:32;;;;;;;;;;;14.60;99.90;;;;;;5001425;28;19914;-82
2021/10/09 12:59:58;;;;;;;;;;;14.60;99.90;;;;;;4998713;28;20300;-82
2021/10/09 13:02:23;;;;;;;;;;;14.60;99.90;;;;;;5029336;28;20016;-82
2021/10/09 13:04:49;;;;;;;;;;;14.70;99.90;;;;;;5018625;28;20008;-82
2021/10/09 13:07:14;;;;;;;;;;;14.80;99.90;;;;;;5009709;28;19924;-78
2021/10/09 13:09:40;;;;;;;;;;;14.80;99.90;;;;;;5017252;28;20314;-82
2021/10/09 13:12:11;;;;;;;;;;;14.80;99.90;;;;;;5034930;28;20362;-82
2021/10/09 13:14:36;;;;;;;;;;;14.80;99.90;;;;;;5004965;28;20328;-81
2021/10/09 13:17:02;;;;;;;;;;;14.80;99.90;;;;;;5020610;28;20010;-81
2021/10/09 13:19:27;;;;;;;;;;;14.90;99.90;;;;;;5006121;28;19917;-83
2021/10/09 13:21:53;;;;;;;;;;;15.00;99.90;;;;;;5025301;28;20309;-82
2021/10/09 13:24:19;;;;;;;;;;;15.00;99.90;;;;;;5026086;28;20003;-82
2021/10/09 13:26:44;;;;;;;;;;;15.10;99.90;;;;;;5034760;28;20308;-81
2021/10/09 13:29:10;;;;;;;;;;;15.10;99.90;;;;;;5031962;28;19916;-82
2021/10/09 13:31:36;;;;;;;;;;;15.20;99.90;;;;;;5018473;28;19916;-81
2021/10/09 13:34:02;;;;;;;;;;;15.10;99.90;;;;;;5036685;28;19929;-82
2021/10/09 13:36:29;;;;;;;;;;;15.20;99.90;;;;;;5023114;28;19918;-81
2021/10/09 13:38:55;;;;;;;;;;;15.20;99.90;;;;;;5020352;28;20344;-82
2021/10/09 13:41:21;;;;;;;;;;;15.20;99.90;;;;;;5012967;28;19913;-82
2021/10/09 13:43:47;;;;;;;;;;;15.20;99.90;;;;;;5024068;28;20208;-82
2021/10/09 13:46:13;;;;;;;;;;;15.20;99.90;;;;;;5027920;28;19917;-81
2021/10/09 13:48:40;;;;;;;;;;;15.20;99.90;;;;;;5027029;28;19913;-83
2021/10/09 13:51:12;;;;;;;;;;;15.30;99.90;;;;;;5014447;28;19917;-81
2021/10/09 13:53:38;;;;;;;;;;;15.30;99.90;;;;;;5033647;28;19932;-82
2021/10/09 13:56:03;;;;;;;;;;;15.30;99.90;;;;;;5034284;28;19909;-83
2021/10/09 13:58:29;;;;;;;;;;;15.20;99.90;;;;;;5034909;28;19909;-83
2021/10/09 14:00:54;;;;;;;;;;;15.30;99.90;;;;;;5027036;28;19971;-80
2021/10/09 14:03:20;;;;;;;;;;;15.30;99.90;;;;;;5021368;28;19909;-84
2021/10/09 14:05:47;;;;;;;;;;;15.30;99.90;;;;;;5019471;28;20367;-81
2021/10/09 14:08:12;;;;;;;;;;;15.30;99.90;;;;;;5024942;28;20004;-82
2021/10/09 14:10:39;;;;;;;;;;;15.30;99.90;;;;;;5026075;28;20285;-81
2021/10/09 14:13:07;;;;;;;;;;;15.30;99.90;;;;;;5016594;28;19920;-81
2021/10/09 14:15:33;;;;;;;;;;;15.30;99.90;;;;;;5010511;28;20004;-83
2021/10/09 14:17:58;;;;;;;;;;;15.30;99.90;;;;;;5010061;28;20368;-83
2021/10/09 14:20:24;;;;;;;;;;;15.40;99.90;;;;;;5014821;28;19935;-83
2021/10/09 14:22:50;;;;;;;;;;;15.40;99.90;;;;;;5029426;28;19956;-83
2021/10/09 14:25:15;;;;;;;;;;;15.40;99.90;;;;;;5024946;28;19916;-82
2021/10/09 14:27:41;;;;;;;;;;;15.40;99.90;;;;;;5004455;28;20359;-83
2021/10/09 14:30:08;;;;;;;;;;;15.40;99.90;;;;;;5023738;28;19916;-83
2021/10/09 14:32:34;;;;;;;;;;;15.40;99.90;;;;;;5031804;28;19913;-83
2021/10/09 14:34:59;;;;;;;;;;;15.50;99.90;;;;;;5026282;28;19921;-82
2021/10/09 14:37:25;;;;;;;;;;;15.40;99.90;;;;;;5013864;28;19918;-81
2021/10/09 14:39:51;;;;;;;;;;;15.50;99.90;;;;;;5019602;28;20222;-83
2021/10/09 14:42:17;;;;;;;;;;;15.50;99.90;;;;;;5024011;28;19917;-83
2021/10/09 14:44:43;;;;;;;;;;;15.40;99.90;;;;;;5005759;28;19992;-80
2021/10/09 14:49:56;;;;;;;;;;;15.40;99.90;;;;;;5024271;28;19924;-84
2021/10/09 15:19:13;;;;;;;;;;;15.50;99.90;;;;;;5023700;28;19917;-83
2021/10/09 15:21:39;;;;;;;;;;;15.50;99.90;;;;;;5029778;28;19913;-83
2021/10/09 15:24:05;;;;;;;;;;;15.50;99.90;;;;;;5012495;28;19918;-82
2021/10/09 15:26:30;;;;;;;;;;;15.50;99.90;;;;;;5032303;28;19921;-83
2021/10/09 15:28:56;;;;;;;;;;;15.40;99.90;;;;;;5033521;28;19960;-83
2021/10/09 15:31:21;;;;;;;;;;;15.40;99.90;;;;;;5011611;28;19917;-83
2021/10/09 15:33:47;;;;;;;;;;;15.40;99.90;;;;;;5019553;28;19913;-83
2021/10/09 15:36:13;;;;;;;;;;;15.40;99.90;;;;;;5010705;28;19914;-84
2021/10/09 15:38:39;;;;;;;;;;;15.40;99.90;;;;;;5035655;28;19921;-84
2021/10/09 15:41:05;;;;;;;;;;;15.30;99.90;;;;;;5036464;28;19956;-81
2021/10/09 15:43:31;;;;;;;;;;;15.20;99.90;;;;;;5034471;28;20009;-83
2021/10/09 15:45:56;;;;;;;;;;;15.10;99.90;;;;;;5031424;28;19913;-83
2021/10/09 15:48:22;;;;;;;;;;;15.10;99.90;;;;;;5027170;28;20322;-84
2021/10/09 15:50:47;;;;;;;;;;;15.10;99.90;;;;;;5029183;28;19932;-84
2021/10/09 15:53:16;;;;;;;;;;;15.10;99.90;;;;;;5013949;28;20308;-84
2021/10/09 15:55:41;;;;;;;;;;;15.00;99.90;;;;;;5027633;28;20260;-84
2021/10/09 15:58:07;;;;;;;;;;;15.00;99.90;;;;;;5028178;28;20004;-83
2021/10/09 16:00:32;;;;;;;;;;;15.00;99.90;;;;;;5013894;28;19917;-83
2021/10/09 16:02:58;;;;;;;;;;;14.90;99.90;;;;;;5024444;28;19967;-83
2021/10/09 16:05:24;;;;;;;;;;;14.90;99.90;;;;;;5018018;28;19920;-84
2021/10/09 16:07:49;;;;;;;;;;;14.80;99.90;;;;;;5024893;28;19992;-83
2021/10/09 16:10:15;;;;;;;;;;;14.80;99.90;;;;;;5011864;28;19913;-79
2021/10/09 16:12:40;;;;;;;;;;;14.80;99.90;;;;;;5027226;28;19982;-83
2021/10/09 16:15:07;;;;;;;;;;;14.80;99.90;;;;;;5013270;28;19924;-83
2021/10/09 16:17:33;;;;;;;;;;;14.80;99.90;;;;;;5013289;28;19920;-84
2021/10/09 16:19:59;;;;;;;;;;;14.80;99.90;;;;;;5012984;28;19999;-83
2021/10/09 16:22:25;;;;;;;;;;;14.60;99.90;;;;;;5030766;28;19909;-83
2021/10/09 16:24:51;;;;;;;;;;;14.50;99.90;;;;;;5011090;28;19959;-84
2021/10/09 16:27:17;;;;;;;;;;;14.40;99.90;;;;;;5011324;28;19957;-83
2021/10/09 16:29:43;;;;;;;;;;;14.30;99.90;;;;;;5013042;28;19914;-83
2021/10/09 16:32:09;;;;;;;;;;;14.30;99.90;;;;;;5036380;28;19913;-83
2021/10/09 16:34:34;;;;;;;;;;;14.20;99.90;;;;;;5035227;28;20185;-80
2021/10/09 16:37:00;;;;;;;;;;;14.20;99.90;;;;;;5027324;28;19917;-84
2021/10/09 16:39:26;;;;;;;;;;;14.20;99.90;;;;;;5026983;28;19940;-82
2021/10/09 16:41:52;;;;;;;;;;;14.00;99.90;;;;;;5024680;28;19916;-84
2021/10/09 16:44:18;;;;;;;;;;;13.90;99.90;;;;;;5031501;28;19913;-84
2021/10/09 16:46:44;;;;;;;;;;;13.80;99.90;;;;;;5026809;28;20311;-83
2021/10/09 16:49:09;;;;;;;;;;;13.60;99.90;;;;;;5022830;28;19913;-84
2021/10/09 16:51:36;;;;;;;;;;;13.50;99.90;;;;;;5010934;28;20415;-78
2021/10/09 16:54:02;;;;;;;;;;;13.40;99.90;;;;;;5020135;28;19917;-83
2021/10/09 16:56:28;;;;;;;;;;;13.30;99.90;;;;;;5029880;28;19917;-83
2021/10/09 16:58:54;;;;;;;;;;;13.20;99.90;;;;;;5017956;28;20328;-83
2021/10/09 17:01:19;;;;;;;;;;;13.10;99.90;;;;;;5024519;28;19920;-84
2021/10/09 17:03:45;;;;;;;;;;;13.00;99.90;;;;;;5012527;28;19917;-82
2021/10/09 17:06:11;;;;;;;;;;;12.90;99.90;;;;;;5022734;28;19913;-85